Terminal Aerodrome Forecast
Issued by NWS

Home | Current Version | Previous Version | Text Only | Print | Product List | Glossary On
Versions: 1 2 3 4 5 6 7 8 9 10 11 12 13 14 15 16
000
FTUS45 KFGZ 100500 RRA
TAFSEZ
TAF
KSEZ 100544Z 1006/1106 VRB06KT P6SM SCT060 SCT200
     FM100800 04006KT P6SM FEW080 SCT200
     FM101800 22007KT P6SM SCT070 BKN110
      TEMPO 1020/1024 5SM -TSRA BKN070CB
     FM110200 VRB06KT P6SM FEW070 BKN200=

USA.gov is the U.S. government's official web portal to all federal, state and local government web resources and services.